createdAt,value
2019-01-20T00:00:49.827Z,7.37
2019-01-20T00:05:45.614Z,7.50
2019-01-20T00:10:41.325Z,7.07
2019-01-20T00:15:37.302Z,6.97
2019-01-20T00:20:33.033Z,6.57
2019-01-20T00:25:28.740Z,7.10
2019-01-20T00:30:24.451Z,7.43
2019-01-20T00:35:20.161Z,6.83
2019-01-20T00:40:15.985Z,6.23
2019-01-20T00:45:13.077Z,6.47
2019-01-20T00:50:09.742Z,6.20
2019-01-20T00:55:07.226Z,7.83
2019-01-20T01:00:05.521Z,6.73
2019-01-20T01:05:01.346Z,6.67
2019-01-20T01:09:57.057Z,7.40
2019-01-20T01:14:52.775Z,6.93
2019-01-20T01:19:48.456Z,6.87
2019-01-20T01:24:44.201Z,6.77
2019-01-20T01:29:39.903Z,6.53
2019-01-20T01:34:35.632Z,6.33
2019-01-20T01:39:31.321Z,6.37
2019-01-20T01:44:27.030Z,9.20
2019-01-20T01:49:22.702Z,8.07
2019-01-20T01:54:18.437Z,8.37
2019-01-20T01:59:14.142Z,6.57
2019-01-20T02:04:09.830Z,6.60
2019-01-20T02:09:05.924Z,7.33
2019-01-20T02:14:01.714Z,7.07
2019-01-20T02:18:57.423Z,7.17
2019-01-20T02:23:53.233Z,6.10
2019-01-20T02:28:48.952Z,6.80
2019-01-20T02:33:44.651Z,7.37
2019-01-20T02:38:40.360Z,7.13
2019-01-20T02:43:36.280Z,6.60
2019-01-20T02:48:32.237Z,7.30
2019-01-20T02:53:27.937Z,7.57
2019-01-20T02:58:23.661Z,6.93
2019-01-20T03:03:19.371Z,6.70
2019-01-20T03:08:15.076Z,6.17
2019-01-20T03:13:11.020Z,6.73
2019-01-20T03:18:06.847Z,6.80
2019-01-20T03:23:02.572Z,6.77
2019-01-20T03:27:58.289Z,7.10
2019-01-20T03:32:54.039Z,6.30
2019-01-20T03:37:49.852Z,6.43
2019-01-20T03:42:45.568Z,6.20
2019-01-20T03:47:41.379Z,6.03
2019-01-20T03:52:37.183Z,6.63
2019-01-20T03:57:33.142Z,6.57
2019-01-20T04:02:28.853Z,6.27
2019-01-20T04:07:24.670Z,7.13
2019-01-20T04:12:21.066Z,6.23
2019-01-20T04:17:16.856Z,6.53
2019-01-20T04:22:12.561Z,6.23
2019-01-20T04:27:08.329Z,6.00
2019-01-20T04:32:04.059Z,6.60
2019-01-20T04:36:59.763Z,7.23
2019-01-20T04:41:55.467Z,7.30
2019-01-20T04:46:51.193Z,7.07
2019-01-20T04:51:46.985Z,6.63
2019-01-20T04:56:42.707Z,6.50
2019-01-20T05:01:38.454Z,6.90
2019-01-20T05:06:34.230Z,6.70
2019-01-20T05:11:29.953Z,6.67
2019-01-20T05:16:25.626Z,6.87
2019-01-20T05:21:21.326Z,6.47
2019-01-20T05:26:17.012Z,5.87
2019-01-20T05:31:12.743Z,6.33
2019-01-20T05:36:08.712Z,6.27
2019-01-20T05:41:04.409Z,6.80
2019-01-20T05:46:00.124Z,9.47
2019-01-20T05:50:56.087Z,6.27
2019-01-20T05:55:51.811Z,5.57
2019-01-20T06:00:47.633Z,5.73
2019-01-20T06:05:43.348Z,5.77
2019-01-20T06:10:39.067Z,5.87
2019-01-20T06:15:34.813Z,6.10
2019-01-20T06:20:30.515Z,6.27
2019-01-20T06:25:26.238Z,6.27
2019-01-20T06:30:23.849Z,6.53
2019-01-20T06:35:19.947Z,7.27
2019-01-20T06:40:15.665Z,6.43
2019-01-20T06:45:12.281Z,5.63
2019-01-20T06:50:09.271Z,5.80
2019-01-20T06:55:05.949Z,6.00
2019-01-20T07:00:01.888Z,6.80
2019-01-20T07:04:57.718Z,5.80
2019-01-20T07:09:53.415Z,6.30
2019-01-20T07:14:49.148Z,7.10
2019-01-20T07:19:44.849Z,8.37
2019-01-20T07:24:40.815Z,6.60
2019-01-20T07:29:36.539Z,6.30
2019-01-20T07:34:32.283Z,7.47
2019-01-20T07:39:27.967Z,8.40
2019-01-20T07:44:23.793Z,6.87
2019-01-20T07:49:19.516Z,7.00
2019-01-20T07:54:15.211Z,6.20
2019-01-20T07:59:10.937Z,8.07
2019-01-20T08:04:06.597Z,6.83
2019-01-20T08:09:04.519Z,7.43
2019-01-20T08:14:00.231Z,8.00
2019-01-20T08:18:55.923Z,12.57
2019-01-20T08:23:51.648Z,12.27
2019-01-20T08:28:47.347Z,16.20
2019-01-20T08:33:43.095Z,12.53
2019-01-20T08:38:38.828Z,13.33
2019-01-20T08:43:34.734Z,12.73
2019-01-20T08:48:30.451Z,13.23
2019-01-20T08:53:26.184Z,13.77
2019-01-20T08:58:21.873Z,13.03
2019-01-20T09:03:17.609Z,11.03
2019-01-20T09:08:13.426Z,13.43
2019-01-20T09:13:09.673Z,12.50
2019-01-20T09:18:05.383Z,13.50
2019-01-20T09:23:01.119Z,13.70
2019-01-20T09:27:56.899Z,15.77
2019-01-20T09:32:52.999Z,19.20
2019-01-20T09:37:48.723Z,16.77
2019-01-20T09:42:44.660Z,15.80
2019-01-20T09:47:40.841Z,21.67
2019-01-20T09:52:36.633Z,13.57
2019-01-20T09:57:32.534Z,13.63
2019-01-20T10:02:28.458Z,18.27
2019-01-20T10:07:24.185Z,15.80
2019-01-20T10:12:19.877Z,17.77
2019-01-20T10:17:15.598Z,22.20
2019-01-20T10:22:11.310Z,17.70
2019-01-20T10:27:07.044Z,19.80
2019-01-20T10:32:02.895Z,19.73
2019-01-20T10:36:59.783Z,20.40
2019-01-20T10:41:55.502Z,21.40
2019-01-20T10:46:51.199Z,19.27
2019-01-20T10:51:47.014Z,19.23
2019-01-20T10:56:42.702Z,18.40
2019-01-20T11:01:38.423Z,17.73
2019-01-20T11:06:34.152Z,18.27
2019-01-20T11:11:30.136Z,18.27
2019-01-20T11:16:25.859Z,17.90
2019-01-20T11:21:21.576Z,18.77
2019-01-20T11:26:17.299Z,18.40
2019-01-20T11:31:13.003Z,21.93
2019-01-20T11:36:08.797Z,18.80
2019-01-20T11:41:04.639Z,18.27
2019-01-20T11:46:00.600Z,22.90
2019-01-20T11:50:56.353Z,38.50
2019-01-20T11:55:53.418Z,20.23
2019-01-20T12:00:49.341Z,20.47
2019-01-20T12:05:45.150Z,22.37
2019-01-20T12:10:40.850Z,23.90
2019-01-20T12:15:36.645Z,19.00
2019-01-20T12:20:32.341Z,19.87
2019-01-20T12:25:28.058Z,20.43
2019-01-20T12:30:31.451Z,20.23
2019-01-20T12:35:27.193Z,18.57
2019-01-20T12:40:24.312Z,18.30
2019-01-20T12:45:19.977Z,18.00
2019-01-20T12:50:16.493Z,17.07
2019-01-20T12:55:13.403Z,15.80
2019-01-20T13:00:10.835Z,14.47
2019-01-20T13:05:06.677Z,14.30
2019-01-20T13:10:03.955Z,14.77
2019-01-20T13:14:59.693Z,15.23
2019-01-20T13:19:55.400Z,14.60
2019-01-20T13:24:51.128Z,14.77
2019-01-20T13:29:47.723Z,15.20
2019-01-20T13:34:43.511Z,14.07
2019-01-20T13:39:39.587Z,14.97
2019-01-20T13:44:35.294Z,13.87
2019-01-20T13:49:31.006Z,12.70
2019-01-20T13:54:26.720Z,14.07
2019-01-20T13:59:22.483Z,12.67
2019-01-20T14:04:18.161Z,13.00
2019-01-20T14:09:13.887Z,13.27
2019-01-20T14:14:09.697Z,12.67
2019-01-20T14:19:05.417Z,14.50
2019-01-20T14:24:01.135Z,14.00
2019-01-20T14:28:56.853Z,13.43
2019-01-20T14:33:52.685Z,14.10
2019-01-20T14:38:48.537Z,13.47
2019-01-20T14:43:44.271Z,12.63
2019-01-20T14:48:39.982Z,12.80
2019-01-20T14:53:35.662Z,13.27
2019-01-20T14:58:31.411Z,13.73
2019-01-20T15:03:27.398Z,14.30
2019-01-20T15:08:23.427Z,13.40
2019-01-20T15:13:19.347Z,12.70
2019-01-20T15:18:15.035Z,13.70
2019-01-20T15:23:10.877Z,13.20
2019-01-20T15:28:06.668Z,12.13
2019-01-20T15:33:03.192Z,12.10
2019-01-20T15:37:59.039Z,12.27
2019-01-20T15:42:55.125Z,12.53
2019-01-20T15:47:52.432Z,12.73
2019-01-20T15:52:48.742Z,18.87
2019-01-20T15:57:44.420Z,16.80
2019-01-20T16:02:40.176Z,13.47
2019-01-20T16:07:36.307Z,19.53
2019-01-20T16:12:32.020Z,21.00
2019-01-20T16:17:27.718Z,13.50
2019-01-20T16:22:23.435Z,13.17
2019-01-20T16:27:19.255Z,12.50
2019-01-20T16:32:14.929Z,14.50
2019-01-20T16:37:10.680Z,13.67
2019-01-20T16:42:06.424Z,13.00
2019-01-20T16:47:02.177Z,13.43
2019-01-20T16:51:58.005Z,12.70
2019-01-20T16:56:53.727Z,15.03
2019-01-20T17:01:49.446Z,14.37
2019-01-20T17:06:45.436Z,14.60
2019-01-20T17:11:41.544Z,16.97
2019-01-20T17:16:37.299Z,16.07
2019-01-20T17:21:33.017Z,16.70
2019-01-20T17:26:28.721Z,14.97
2019-01-20T17:31:24.463Z,15.47
2019-01-20T17:36:20.171Z,15.07
2019-01-20T17:41:20.871Z,16.83
2019-01-20T17:46:16.604Z,13.97
2019-01-20T17:51:12.321Z,14.97
2019-01-20T17:56:08.293Z,29.60
2019-01-20T18:01:04.218Z,16.23
2019-01-20T18:06:00.032Z,16.17
2019-01-20T18:10:55.740Z,13.50
2019-01-20T18:15:54.607Z,13.93
2019-01-20T18:20:49.126Z,12.40
2019-01-20T18:25:44.829Z,12.70
2019-01-20T18:30:40.796Z,11.50
2019-01-20T18:35:36.471Z,11.30
2019-01-20T18:40:32.197Z,10.87
2019-01-20T18:45:28.885Z,10.80
2019-01-20T18:50:25.617Z,10.07
2019-01-20T18:55:21.313Z,11.47
2019-01-20T19:00:30.688Z,11.20
2019-01-20T19:05:26.506Z,10.30
2019-01-20T19:10:22.295Z,10.03
2019-01-20T19:15:18.813Z,11.00
2019-01-20T19:20:15.566Z,15.47
2019-01-20T19:25:11.458Z,12.27
2019-01-20T19:30:09.059Z,11.17
2019-01-20T19:35:06.370Z,10.90
2019-01-20T19:40:03.784Z,10.83
2019-01-20T19:44:59.480Z,11.27
2019-01-20T19:49:55.292Z,11.57
2019-01-20T19:54:51.177Z,11.77
2019-01-20T19:59:47.159Z,13.17
2019-01-20T20:04:45.602Z,14.50
2019-01-20T20:09:41.406Z,12.73
2019-01-20T20:14:37.210Z,12.93
2019-01-20T20:19:33.018Z,17.13
2019-01-20T20:24:30.385Z,11.87
2019-01-20T20:29:26.139Z,10.27
2019-01-20T20:34:22.068Z,9.67
2019-01-20T20:39:17.790Z,10.77
2019-01-20T20:44:13.639Z,10.00
2019-01-20T20:49:09.566Z,11.03
2019-01-20T20:54:05.373Z,11.37
2019-01-20T20:59:01.496Z,9.67
2019-01-20T21:03:57.278Z,11.17
2019-01-20T21:08:53.036Z,12.30
2019-01-20T21:13:48.941Z,11.70
2019-01-20T21:18:44.654Z,9.67
2019-01-20T21:23:40.387Z,10.57
2019-01-20T21:28:36.095Z,10.30
2019-01-20T21:33:31.817Z,10.03
2019-01-20T21:38:27.564Z,10.93
2019-01-20T21:43:23.406Z,10.23
2019-01-20T21:48:19.087Z,9.90
2019-01-20T21:53:14.781Z,11.10
2019-01-20T21:58:10.511Z,10.73
2019-01-20T22:03:06.240Z,10.03
2019-01-20T22:08:02.003Z,10.97
2019-01-20T22:12:57.737Z,10.60
2019-01-20T22:17:53.433Z,10.63
2019-01-20T22:22:49.452Z,10.00
2019-01-20T22:27:45.167Z,10.13
2019-01-20T22:32:40.883Z,11.23
2019-01-20T22:37:36.688Z,10.73
2019-01-20T22:42:32.443Z,10.10
2019-01-20T22:47:28.145Z,11.40
2019-01-20T22:52:24.018Z,10.00
2019-01-20T22:57:20.003Z,10.50
2019-01-20T23:02:15.787Z,10.10
2019-01-20T23:07:11.578Z,10.17
2019-01-20T23:12:07.343Z,10.40
2019-01-20T23:17:07.801Z,10.43
2019-01-20T23:22:00.770Z,10.03
2019-01-20T23:26:56.449Z,10.00
2019-01-20T23:31:52.167Z,9.90
2019-01-20T23:36:47.911Z,9.73
2019-01-20T23:41:43.636Z,10.43
2019-01-20T23:46:39.339Z,9.77
2019-01-20T23:51:35.038Z,10.27
2019-01-20T23:56:30.728Z,9.80
